createdAt,value
2018-05-06T00:00:01.385Z,101076
2018-05-06T00:02:38.034Z,101081
2018-05-06T00:05:14.722Z,101079
2018-05-06T00:07:52.330Z,101081
2018-05-06T00:10:30.267Z,101087
2018-05-06T00:13:08.190Z,101084
2018-05-06T00:15:45.437Z,101087
2018-05-06T00:18:24.276Z,101090
2018-05-06T00:21:00.900Z,101096
2018-05-06T00:23:37.892Z,101095
2018-05-06T00:26:14.625Z,101105
2018-05-06T00:28:51.804Z,101110
2018-05-06T00:31:30.572Z,101106
2018-05-06T00:34:07.331Z,101105
2018-05-06T00:36:44.322Z,101102
2018-05-06T00:39:22.225Z,101099
2018-05-06T00:42:00.735Z,101100
2018-05-06T00:44:39.774Z,101103
2018-05-06T00:47:16.668Z,101107
2018-05-06T00:49:53.208Z,101100
2018-05-06T00:52:31.065Z,101098
2018-05-06T00:55:07.448Z,101098
2018-05-06T00:57:44.300Z,101101
2018-05-06T01:00:22.268Z,101108
2018-05-06T01:02:59.648Z,101110
2018-05-06T01:05:37.005Z,101113
2018-05-06T01:08:13.610Z,101108
2018-05-06T01:10:51.550Z,101106
2018-05-06T01:13:28.333Z,101116
2018-05-06T01:16:04.945Z,101117
2018-05-06T01:18:44.287Z,101124
2018-05-06T01:21:20.949Z,101122
2018-05-06T01:23:58.177Z,101126
2018-05-06T01:26:34.805Z,101132
2018-05-06T01:29:13.109Z,101127
2018-05-06T01:31:50.499Z,101124
2018-05-06T01:34:27.704Z,101127
2018-05-06T01:37:04.523Z,101132
2018-05-06T01:39:42.198Z,101133
2018-05-06T01:42:19.860Z,101135
2018-05-06T01:44:56.295Z,101129
2018-05-06T01:47:35.206Z,101125
2018-05-06T01:50:11.843Z,101128
2018-05-06T01:52:49.315Z,101128
2018-05-06T01:55:25.613Z,101130
2018-05-06T01:58:02.197Z,101128
2018-05-06T02:00:40.257Z,101129
2018-05-06T02:03:17.569Z,101131
2018-05-06T02:05:56.148Z,101128
2018-05-06T02:08:33.482Z,101127
2018-05-06T02:11:10.321Z,101124
2018-05-06T02:13:49.124Z,101123
2018-05-06T02:16:27.371Z,101122
2018-05-06T02:19:04.628Z,101116
2018-05-06T02:21:40.797Z,101120
2018-05-06T02:24:17.381Z,101118
2018-05-06T02:26:55.293Z,101119
2018-05-06T02:29:32.552Z,101119
2018-05-06T02:32:09.653Z,101124
2018-05-06T02:34:46.010Z,101119
2018-05-06T02:37:22.701Z,101117
2018-05-06T02:40:00.833Z,101116
2018-05-06T02:42:37.062Z,101115
2018-05-06T02:45:13.821Z,101121
2018-05-06T02:47:50.524Z,101125
2018-05-06T02:50:28.466Z,101141
2018-05-06T02:53:07.734Z,101134
2018-05-06T02:55:45.069Z,101138
2018-05-06T02:58:22.007Z,101144
2018-05-06T03:00:59.513Z,101139
2018-05-06T03:03:38.147Z,101140
2018-05-06T03:06:16.093Z,101139
2018-05-06T03:08:53.090Z,101137
2018-05-06T03:11:31.428Z,101140
2018-05-06T03:14:09.761Z,101138
2018-05-06T03:16:46.257Z,101140
2018-05-06T03:19:23.077Z,101139
2018-05-06T03:21:59.878Z,101139
2018-05-06T03:24:37.143Z,101142
2018-05-06T03:27:13.647Z,101140
2018-05-06T03:29:50.769Z,101145
2018-05-06T03:32:28.369Z,101151
2018-05-06T03:35:06.297Z,101149
2018-05-06T03:37:42.948Z,101152
2018-05-06T03:40:21.161Z,101154
2018-05-06T03:42:59.368Z,101150
2018-05-06T03:45:37.690Z,101152
2018-05-06T03:48:15.769Z,101156
2018-05-06T03:50:53.384Z,101156
2018-05-06T03:53:30.377Z,101163
2018-05-06T03:59:57.436Z,101151
2018-05-06T04:02:37.233Z,101150
2018-05-06T04:05:16.393Z,101156
2018-05-06T04:07:53.955Z,101160
2018-05-06T04:10:31.905Z,101163
2018-05-06T04:13:10.026Z,101166
2018-05-06T04:15:46.980Z,101167
2018-05-06T04:18:25.501Z,101171
2018-05-06T04:21:04.284Z,101177
2018-05-06T04:23:42.264Z,101177
2018-05-06T04:26:20.553Z,101181
2018-05-06T04:28:59.262Z,101182
2018-05-06T04:31:37.444Z,101178
2018-05-06T04:34:16.296Z,101175
2018-05-06T04:36:54.252Z,101176
2018-05-06T04:39:32.909Z,101176
2018-05-06T04:42:10.829Z,101177
2018-05-06T04:44:47.304Z,101174
2018-05-06T04:47:25.809Z,101173
2018-05-06T04:50:02.396Z,101173
2018-05-06T04:52:40.668Z,101169
2018-05-06T04:55:19.508Z,101166
2018-05-06T04:57:58.316Z,101171
2018-05-06T05:00:35.909Z,101166
2018-05-06T05:03:13.220Z,101157
2018-05-06T05:05:51.714Z,101159
2018-05-06T05:08:28.881Z,101155
2018-05-06T05:11:07.351Z,101157
2018-05-06T05:13:44.605Z,101152
2018-05-06T05:16:21.995Z,101150
2018-05-06T05:18:59.448Z,101148
2018-05-06T05:21:37.867Z,101150
2018-05-06T05:24:15.513Z,101141
2018-05-06T05:26:52.887Z,101145
2018-05-06T05:29:31.284Z,101148
2018-05-06T05:32:09.275Z,101148
2018-05-06T05:34:48.449Z,101154
2018-05-06T05:37:25.624Z,101152
2018-05-06T05:40:02.440Z,101155
2018-05-06T05:42:40.196Z,101153
2018-05-06T05:45:17.810Z,101152
2018-05-06T05:47:56.073Z,101154
2018-05-06T05:50:34.774Z,101151
2018-05-06T05:53:12.333Z,101143
2018-05-06T05:55:49.487Z,101148
2018-05-06T05:58:28.483Z,101151
2018-05-06T06:01:06.736Z,101153
2018-05-06T06:03:43.999Z,101154
2018-05-06T06:06:22.657Z,101152
2018-05-06T06:09:00.046Z,101153
2018-05-06T06:11:37.275Z,101163
2018-05-06T06:14:14.998Z,101158
2018-05-06T06:16:53.522Z,101153
2018-05-06T06:19:31.241Z,101146
2018-05-06T06:22:08.191Z,101149
2018-05-06T06:24:45.769Z,101151
2018-05-06T06:27:23.898Z,101154
2018-05-06T06:30:00.373Z,101152
2018-05-06T06:32:37.925Z,101147
2018-05-06T06:35:16.973Z,101146
2018-05-06T06:37:53.967Z,101146
2018-05-06T06:40:31.255Z,101144
2018-05-06T06:43:09.149Z,101140
2018-05-06T06:45:47.715Z,101136
2018-05-06T06:48:26.194Z,101140
2018-05-06T06:51:04.712Z,101142
2018-05-06T06:53:41.361Z,101139
2018-05-06T06:56:20.212Z,101136
2018-05-06T06:58:57.794Z,101135
2018-05-06T07:01:37.069Z,101132
2018-05-06T07:04:14.219Z,101135
2018-05-06T07:06:50.870Z,101135
2018-05-06T07:09:29.398Z,101135
2018-05-06T07:12:07.404Z,101136
2018-05-06T07:14:43.659Z,101137
2018-05-06T07:17:21.817Z,101132
2018-05-06T07:20:00.729Z,101135
2018-05-06T07:22:37.068Z,101134
2018-05-06T07:25:15.301Z,101130
2018-05-06T07:27:53.828Z,101133
2018-05-06T07:30:31.052Z,101125
2018-05-06T07:33:08.967Z,101125
2018-05-06T07:35:47.526Z,101128
2018-05-06T07:38:25.077Z,101131
2018-05-06T07:41:02.241Z,101124
2018-05-06T07:43:39.698Z,101127
2018-05-06T07:46:16.959Z,101127
2018-05-06T07:48:54.076Z,101126
2018-05-06T07:51:31.913Z,101130
2018-05-06T07:54:09.170Z,101123
2018-05-06T07:56:47.044Z,101124
2018-05-06T07:59:24.720Z,101132
2018-05-06T08:02:02.947Z,101130
2018-05-06T08:04:40.569Z,101131
2018-05-06T08:07:17.685Z,101137
2018-05-06T08:09:54.924Z,101131
2018-05-06T08:12:31.972Z,101136
2018-05-06T08:15:10.702Z,101142
2018-05-06T08:17:47.503Z,101134
2018-05-06T08:20:25.772Z,101137
2018-05-06T08:23:02.682Z,101136
2018-05-06T08:25:42.592Z,101131
2018-05-06T08:28:19.069Z,101126
2018-05-06T08:30:56.424Z,101127
2018-05-06T08:33:35.524Z,101123
2018-05-06T08:36:13.476Z,101118
2018-05-06T08:38:49.749Z,101120
2018-05-06T08:41:28.073Z,101121
2018-05-06T08:44:06.189Z,101115
2018-05-06T08:46:42.437Z,101114
2018-05-06T08:49:21.278Z,101113
2018-05-06T08:51:59.596Z,101117
2018-05-06T08:54:35.950Z,101109
2018-05-06T08:57:13.736Z,101109
2018-05-06T08:59:52.645Z,101108
2018-05-06T09:02:28.741Z,101108
2018-05-06T09:05:06.282Z,101110
2018-05-06T09:07:44.861Z,101115
2018-05-06T09:10:22.113Z,101116
2018-05-06T09:12:57.965Z,101108
2018-05-06T09:15:36.278Z,101113
2018-05-06T09:18:13.378Z,101116
2018-05-06T09:20:50.918Z,101109
2018-05-06T09:23:29.189Z,101119
2018-05-06T09:26:06.140Z,101119
2018-05-06T09:28:44.912Z,101118
2018-05-06T09:31:24.570Z,101108
2018-05-06T09:34:00.876Z,101103
2018-05-06T09:36:37.754Z,101099
2018-05-06T09:39:16.040Z,101104
2018-05-06T09:41:53.664Z,101097
2018-05-06T09:44:31.259Z,101089
2018-05-06T09:47:10.296Z,101097
2018-05-06T09:49:47.086Z,101095
2018-05-06T09:52:25.170Z,101095
2018-05-06T09:55:02.448Z,101099
2018-05-06T09:57:41.259Z,101091
2018-05-06T10:00:17.242Z,101093
2018-05-06T10:02:54.477Z,101092
2018-05-06T10:05:32.343Z,101085
2018-05-06T10:08:09.626Z,101080
2018-05-06T10:10:47.789Z,101075
2018-05-06T10:13:25.252Z,101083
2018-05-06T10:16:03.009Z,101082
2018-05-06T10:18:40.301Z,101084
2018-05-06T10:21:16.742Z,101078
2018-05-06T10:23:52.925Z,101075
2018-05-06T10:26:30.628Z,101080
2018-05-06T10:29:07.440Z,101072
2018-05-06T10:31:45.397Z,101074
2018-05-06T10:34:22.670Z,101066
2018-05-06T10:37:00.915Z,101065
2018-05-06T10:39:37.048Z,101066
2018-05-06T10:42:15.165Z,101067
2018-05-06T10:44:52.100Z,101066
2018-05-06T10:47:29.703Z,101063
2018-05-06T10:50:07.337Z,101053
2018-05-06T10:52:45.838Z,101055
2018-05-06T10:55:23.432Z,101051
2018-05-06T10:58:02.553Z,101053
2018-05-06T11:00:39.377Z,101049
2018-05-06T11:03:16.456Z,101046
2018-05-06T11:05:54.137Z,101054
2018-05-06T11:08:32.398Z,101044
2018-05-06T11:11:08.716Z,101048
2018-05-06T11:13:45.663Z,101041
2018-05-06T11:16:22.646Z,101040
2018-05-06T11:18:59.708Z,101034
2018-05-06T11:21:36.916Z,101026
2018-05-06T11:24:14.029Z,101034
2018-05-06T11:26:51.272Z,101029
2018-05-06T11:29:28.165Z,101031
2018-05-06T11:32:04.349Z,101034
2018-05-06T11:34:41.214Z,101033
2018-05-06T11:37:20.784Z,101031
2018-05-06T11:39:59.466Z,101026
2018-05-06T11:42:37.666Z,101014
2018-05-06T11:45:15.565Z,101020
2018-05-06T11:47:53.326Z,101024
2018-05-06T11:50:30.205Z,101022
2018-05-06T11:53:08.492Z,101023
2018-05-06T11:55:46.407Z,101017
2018-05-06T11:58:22.931Z,101014
2018-05-06T12:01:00.831Z,101010
2018-05-06T12:03:37.502Z,101017
2018-05-06T12:06:14.548Z,101005
2018-05-06T12:08:53.665Z,101006
2018-05-06T12:11:30.345Z,101004
2018-05-06T12:14:08.497Z,101007
2018-05-06T12:16:45.416Z,101001
2018-05-06T12:19:22.361Z,100992
2018-05-06T12:21:59.141Z,100993
2018-05-06T12:24:38.239Z,100987
2018-05-06T12:27:16.946Z,100988
2018-05-06T12:29:55.221Z,100968
2018-05-06T12:32:32.272Z,100970
2018-05-06T12:35:09.575Z,100969
2018-05-06T12:37:45.775Z,100982
2018-05-06T12:40:22.894Z,100971
2018-05-06T12:43:01.100Z,100965
2018-05-06T12:45:38.687Z,100966
2018-05-06T12:48:16.016Z,100956
2018-05-06T12:50:53.552Z,100953
2018-05-06T12:53:30.554Z,100951
2018-05-06T12:56:07.920Z,100947
2018-05-06T12:58:46.357Z,100943
2018-05-06T13:01:23.325Z,100947
2018-05-06T13:04:01.333Z,100943
2018-05-06T13:06:38.828Z,100935
2018-05-06T13:09:16.520Z,100937
2018-05-06T13:11:53.478Z,100924
2018-05-06T13:14:30.686Z,100927
2018-05-06T13:17:08.074Z,100932
2018-05-06T13:19:45.174Z,100919
2018-05-06T13:22:23.173Z,100921
2018-05-06T13:24:59.409Z,100923
2018-05-06T13:27:37.775Z,100919
2018-05-06T13:30:16.140Z,100916
2018-05-06T13:32:54.145Z,100916
2018-05-06T13:35:31.663Z,100918
2018-05-06T13:38:09.152Z,100921
2018-05-06T13:40:46.392Z,100916
2018-05-06T13:43:23.462Z,100900
2018-05-06T13:46:00.631Z,100908
2018-05-06T13:48:36.417Z,100900
2018-05-06T13:51:15.100Z,100903
2018-05-06T13:53:52.829Z,100903
2018-05-06T13:56:30.344Z,100904
2018-05-06T13:59:14.080Z,100898
2018-05-06T14:01:53.899Z,100891
2018-05-06T14:04:31.164Z,100895
2018-05-06T14:07:08.474Z,100885
2018-05-06T14:09:46.266Z,100896
2018-05-06T14:12:23.913Z,100896
2018-05-06T14:15:00.062Z,100890
2018-05-06T14:17:37.117Z,100885
2018-05-06T14:20:15.161Z,100882
2018-05-06T14:22:52.131Z,100884
2018-05-06T14:25:29.726Z,100883
2018-05-06T14:28:07.513Z,100880
2018-05-06T14:30:44.302Z,100879
2018-05-06T14:33:22.201Z,100873
2018-05-06T14:35:59.181Z,100881
2018-05-06T14:38:37.602Z,100874
2018-05-06T14:41:15.341Z,100882
2018-05-06T14:43:53.516Z,100876
2018-05-06T14:46:46.776Z,100874
2018-05-06T14:49:24.341Z,100865
2018-05-06T14:52:02.600Z,100864
2018-05-06T14:54:39.534Z,100875
2018-05-06T14:57:15.996Z,100870
2018-05-06T14:59:54.138Z,100862
2018-05-06T15:02:32.547Z,100867
2018-05-06T15:05:10.544Z,100866
2018-05-06T15:07:46.869Z,100854
2018-05-06T15:10:23.733Z,100862
2018-05-06T15:13:01.615Z,100858
2018-05-06T15:15:38.847Z,100855
2018-05-06T15:18:15.436Z,100858
2018-05-06T15:20:52.446Z,100855
2018-05-06T15:23:29.405Z,100853
2018-05-06T15:26:06.377Z,100852
2018-05-06T15:28:44.303Z,100847
2018-05-06T15:31:22.184Z,100853
2018-05-06T15:33:58.720Z,100854
2018-05-06T15:36:36.053Z,100854
2018-05-06T15:39:14.038Z,100846
2018-05-06T15:41:51.195Z,100847
2018-05-06T15:44:28.222Z,100849
2018-05-06T15:47:05.470Z,100843
2018-05-06T15:49:42.282Z,100836
2018-05-06T15:52:18.912Z,100843
2018-05-06T15:54:57.766Z,100841
2018-05-06T15:57:35.657Z,100838
2018-05-06T16:00:15.481Z,100837
2018-05-06T16:03:08.596Z,100840
2018-05-06T16:05:45.026Z,100834
2018-05-06T16:08:22.313Z,100842
2018-05-06T16:10:58.685Z,100836
2018-05-06T16:13:37.057Z,100837
2018-05-06T16:16:13.590Z,100836
2018-05-06T16:18:50.253Z,100834
2018-05-06T16:21:26.500Z,100823
2018-05-06T16:24:04.413Z,100822
2018-05-06T16:26:41.164Z,100820
2018-05-06T16:29:17.571Z,100824
2018-05-06T16:31:54.457Z,100827
2018-05-06T16:34:31.185Z,100829
2018-05-06T16:37:08.246Z,100821
2018-05-06T16:39:45.057Z,100824
2018-05-06T16:42:21.506Z,100825
2018-05-06T16:44:59.416Z,100828
2018-05-06T16:47:35.776Z,100818
2018-05-06T16:50:12.348Z,100818
2018-05-06T16:52:48.961Z,100822
2018-05-06T16:55:26.757Z,100821
2018-05-06T16:58:02.884Z,100819
2018-05-06T17:00:39.630Z,100821
2018-05-06T17:03:16.518Z,100819
2018-05-06T17:05:52.696Z,100823
2018-05-06T17:08:30.075Z,100816
2018-05-06T17:11:06.451Z,100818
2018-05-06T17:13:43.068Z,100819
2018-05-06T17:16:18.866Z,100821
2018-05-06T17:18:55.544Z,100823
2018-05-06T17:21:31.398Z,100822
2018-05-06T17:24:08.667Z,100827
2018-05-06T17:26:47.341Z,100825
2018-05-06T17:29:23.566Z,100819
2018-05-06T17:32:00.246Z,100823
2018-05-06T17:34:37.945Z,100826
2018-05-06T17:37:16.088Z,100828
2018-05-06T17:39:51.116Z,100825
2018-05-06T17:42:29.273Z,100826
2018-05-06T17:45:04.845Z,100823
2018-05-06T17:47:40.909Z,100827
2018-05-06T17:50:17.435Z,100832
2018-05-06T17:52:54.247Z,100829
2018-05-06T17:55:30.787Z,100829
2018-05-06T17:58:07.785Z,100828
2018-05-06T18:00:44.774Z,100831
2018-05-06T18:03:22.142Z,100839
2018-05-06T18:06:00.569Z,100837
2018-05-06T18:08:37.914Z,100835
2018-05-06T18:11:16.051Z,100838
2018-05-06T18:13:53.065Z,100837
2018-05-06T18:16:29.508Z,100835
2018-05-06T18:19:05.477Z,100839
2018-05-06T18:21:41.985Z,100835
2018-05-06T18:24:19.116Z,100831
2018-05-06T18:26:55.329Z,100834
2018-05-06T18:29:33.084Z,100833
2018-05-06T18:32:11.915Z,100829
2018-05-06T18:34:48.376Z,100834
2018-05-06T18:37:26.192Z,100834
2018-05-06T18:40:03.132Z,100839
2018-05-06T18:42:39.495Z,100839
2018-05-06T18:45:18.040Z,100847
2018-05-06T18:47:54.961Z,100845
2018-05-06T18:50:32.917Z,100850
2018-05-06T18:53:09.891Z,100859
2018-05-06T18:55:46.594Z,100859
2018-05-06T18:58:22.975Z,100855
2018-05-06T19:01:00.516Z,100863
2018-05-06T19:03:37.599Z,100862
2018-05-06T19:06:16.341Z,100863
2018-05-06T19:08:53.356Z,100865
2018-05-06T19:11:31.830Z,100867
2018-05-06T19:14:09.726Z,100867
2018-05-06T19:16:47.651Z,100873
2018-05-06T19:19:24.843Z,100865
2018-05-06T19:22:02.817Z,100875
2018-05-06T19:24:41.169Z,100869
2018-05-06T19:27:19.027Z,100870
2018-05-06T19:29:55.906Z,100873
2018-05-06T19:32:33.252Z,100874
2018-05-06T19:35:12.399Z,100875
2018-05-06T19:37:49.185Z,100876
2018-05-06T19:40:26.008Z,100873
2018-05-06T19:43:02.661Z,100877
2018-05-06T19:45:40.779Z,100876
2018-05-06T19:48:19.188Z,100880
2018-05-06T19:50:56.409Z,100880
2018-05-06T19:53:33.243Z,100878
2018-05-06T19:56:10.921Z,100875
2018-05-06T19:58:47.909Z,100873
2018-05-06T20:01:25.197Z,100877
2018-05-06T20:04:01.541Z,100873
2018-05-06T20:06:37.561Z,100874
2018-05-06T20:09:14.352Z,100873
2018-05-06T20:11:51.612Z,100876
2018-05-06T20:14:29.240Z,100873
2018-05-06T20:17:06.422Z,100874
2018-05-06T20:19:44.309Z,100877
2018-05-06T20:22:22.877Z,100874
2018-05-06T20:25:00.616Z,100876
2018-05-06T20:27:37.597Z,100879
2018-05-06T20:30:14.109Z,100883
2018-05-06T20:32:50.731Z,100881
2018-05-06T20:35:28.652Z,100888
2018-05-06T20:38:05.734Z,100887
2018-05-06T20:40:42.578Z,100895
2018-05-06T20:43:18.792Z,100891
2018-05-06T20:45:57.810Z,100897
2018-05-06T20:48:35.620Z,100897
2018-05-06T20:51:13.613Z,100901
2018-05-06T20:53:50.635Z,100901
2018-05-06T20:56:27.350Z,100910
2018-05-06T20:59:05.380Z,100901
2018-05-06T21:01:42.965Z,100903
2018-05-06T21:04:19.581Z,100903
2018-05-06T21:06:58.086Z,100901
2018-05-06T21:09:36.770Z,100900
2018-05-06T21:12:13.445Z,100907
2018-05-06T21:14:50.847Z,100909
2018-05-06T21:17:28.350Z,100905
2018-05-06T21:20:04.977Z,100905
2018-05-06T21:22:43.373Z,100907
2018-05-06T21:25:21.647Z,100913
2018-05-06T21:27:58.330Z,100904
2018-05-06T21:30:36.186Z,100903
2018-05-06T21:33:16.461Z,100907
2018-05-06T21:35:54.258Z,100905
2018-05-06T21:38:31.551Z,100901
2018-05-06T21:41:08.344Z,100902
2018-05-06T21:43:46.121Z,100901
2018-05-06T21:46:24.934Z,100900
2018-05-06T21:49:02.034Z,100905
2018-05-06T21:51:40.513Z,100905
2018-05-06T21:54:16.961Z,100905
2018-05-06T21:56:54.462Z,100898
2018-05-06T21:59:32.286Z,100902
2018-05-06T22:02:10.648Z,100898
2018-05-06T22:04:48.863Z,100906
2018-05-06T22:07:26.729Z,100907
2018-05-06T22:10:03.187Z,100906
2018-05-06T22:12:40.545Z,100909
2018-05-06T22:15:18.405Z,100909
2018-05-06T22:17:56.364Z,100911
2018-05-06T22:20:33.352Z,100912
2018-05-06T22:23:10.298Z,100916
2018-05-06T22:25:47.321Z,100910
2018-05-06T22:28:25.733Z,100910
2018-05-06T22:31:03.121Z,100913
2018-05-06T22:33:41.553Z,100912
2018-05-06T22:36:18.157Z,100909
2018-05-06T22:38:54.772Z,100915
2018-05-06T22:41:31.550Z,100909
2018-05-06T22:44:09.983Z,100916
2018-05-06T22:46:48.578Z,100913
2018-05-06T22:49:26.899Z,100911
2018-05-06T22:52:05.081Z,100916
2018-05-06T22:54:43.367Z,100914
2018-05-06T22:57:20.117Z,100910
2018-05-06T22:59:59.126Z,100907
2018-05-06T23:02:35.854Z,100909
2018-05-06T23:05:13.591Z,100910
2018-05-06T23:07:50.436Z,100911
2018-05-06T23:10:27.599Z,100908
2018-05-06T23:13:04.224Z,100904
2018-05-06T23:15:40.789Z,100902
2018-05-06T23:18:18.628Z,100905
2018-05-06T23:20:57.138Z,100906
2018-05-06T23:23:35.613Z,100904
2018-05-06T23:26:12.298Z,100909
2018-05-06T23:28:49.601Z,100910
2018-05-06T23:31:26.623Z,100910
2018-05-06T23:34:03.762Z,100913
2018-05-06T23:36:41.124Z,100916
2018-05-06T23:39:18.117Z,100921
2018-05-06T23:41:54.624Z,100923
2018-05-06T23:44:33.410Z,100929
2018-05-06T23:47:11.624Z,100925
2018-05-06T23:49:48.266Z,100923
2018-05-06T23:52:26.174Z,100920
2018-05-06T23:55:03.537Z,100918
2018-05-06T23:57:40.969Z,100922
